Terminal Aerodrome Forecast
Issued by NWS

Home | Current Version | Previous Version | Text Only | Print | Product List | Glossary On
Versions: 1 2 3 4 5 6 7 8 9 10 11 12 13 14 15 16 17 18 19 20 21 22 23 24 25 26 27 28 29 30 31 32 33 34 35 36 37 38 39 40 41 42 43 44 45 46 47 48 49 50
000
FTUS46 KEKA 251500 AAB
TAFACV
TAF AMD
KACV 251517Z 2515/2612 VRB04KT 2SM BR OVC002
      TEMPO 2515/2517 1/2SM FG
     FM251800 29005KT P6SM SKC
     FM252000 32010G18KT P6SM SKC
     FM260300 31008KT P6SM SCT008=

USA.gov is the U.S. government's official web portal to all federal, state and local government web resources and services.